Time;durP1;ratioP1;P1;durP2;ratioP2;P2;SDS_P1;SDS_P2;PMS_P1;PMS_P2;Temp;Humidity;BMP_temperature;BMP_pressure;BME280_temperature;BME280_humidity;BME280_pressure;Samples;Min_cycle;Max_cycle;Signal;HPM_P1;HPM_P2
2022/10/05 00:08:35;;;;;;;8.17;4.57;;;;;;;15.54;86.23;101464.84;20950794;28;20079;-63
2022/10/05 00:18:58;;;;;;;9.63;4.35;;;;;;;15.53;86.58;101451.81;20960016;28;20041;-63
2022/10/05 00:29:21;;;;;;;10.55;4.63;;;;;;;15.41;87.71;101436.97;20942059;28;20452;-63
2022/10/05 00:39:43;;;;;;;10.50;4.22;;;;;;;15.47;87.89;101441.75;20954345;28;20039;-63
2022/10/05 00:50:24;;;;;;;11.52;4.30;;;;;;;15.49;88.11;101450.38;20953516;28;20049;-63
2022/10/05 01:01:03;;;;;;;8.33;4.77;;;;;;;15.43;88.65;101445.56;20947398;28;20048;-63
2022/10/05 01:12:04;;;;;;;9.05;4.70;;;;;;;15.34;89.06;101440.19;20949365;28;20044;-64
2022/10/05 01:22:47;;;;;;;10.60;5.17;;;;;;;15.28;89.38;101425.72;20952460;28;20497;-63
2022/10/05 01:33:08;;;;;;;7.75;5.18;;;;;;;15.33;89.63;101407.78;20954805;28;20447;-63
2022/10/05 01:43:43;;;;;;;8.90;4.97;;;;;;;15.12;91.44;101398.88;20966726;28;20103;-63
2022/10/05 01:54:39;;;;;;;11.25;5.85;;;;;;;14.91;91.65;101368.94;20957440;28;20040;-63
2022/10/05 02:05:10;;;;;;;10.27;5.30;;;;;;;14.98;92.05;101364.91;20965243;28;20037;-63
2022/10/05 02:15:41;;;;;;;11.02;5.50;;;;;;;14.83;92.28;101360.78;20958270;28;20056;-63
2022/10/05 02:26:04;;;;;;;13.70;5.60;;;;;;;14.77;93.25;101355.97;20955665;28;20578;-63
2022/10/05 02:36:34;;;;;;;10.38;5.13;;;;;;;14.73;93.06;101357.16;20963553;28;20040;-63
2022/10/05 02:47:09;;;;;;;7.80;5.60;;;;;;;14.69;93.46;101342.59;20954177;28;20045;-63
2022/10/05 02:57:37;;;;;;;10.07;5.97;;;;;;;14.82;93.06;101327.63;20956937;28;20095;-63
2022/10/05 03:08:27;;;;;;;13.63;6.10;;;;;;;14.87;93.52;101311.53;20966493;28;20041;-63
2022/10/05 03:19:09;;;;;;;9.48;5.57;;;;;;;14.83;93.39;101333.69;20953950;28;20382;-62
2022/10/05 03:29:39;;;;;;;8.48;5.78;;;;;;;14.73;94.33;101323.03;20953586;28;20088;-61
2022/10/05 03:40:05;;;;;;;12.40;5.95;;;;;;;14.76;94.18;101325.44;20972309;28;20627;-62
2022/10/05 03:50:45;;;;;;;10.65;6.45;;;;;;;14.71;94.19;101311.81;20955710;28;20433;-62
2022/10/05 04:01:17;;;;;;;11.52;6.25;;;;;;;14.69;95.43;101303.25;20948447;28;20470;-61
2022/10/05 04:11:45;;;;;;;12.13;6.63;;;;;;;14.59;95.37;101293.53;20968957;28;20556;-61
2022/10/05 04:22:24;;;;;;;11.57;6.50;;;;;;;14.60;95.85;101293.41;20955977;28;20052;-61
2022/10/05 04:32:54;;;;;;;12.60;6.90;;;;;;;14.52;96.89;101274.78;20953458;28;20149;-62
2022/10/05 04:43:54;;;;;;;12.55;6.60;;;;;;;14.39;97.65;101269.69;20956536;28;20501;-62
2022/10/05 04:54:26;;;;;;;12.73;6.95;;;;;;;14.32;98.15;101271.09;20908220;28;20113;-62
2022/10/05 05:05:07;;;;;;;12.35;7.10;;;;;;;14.41;98.14;101270.44;20955171;28;20382;-62
2022/10/05 05:15:45;;;;;;;14.43;7.10;;;;;;;14.23;99.44;101263.91;20981607;28;20049;-62
2022/10/05 05:26:18;;;;;;;15.10;7.47;;;;;;;14.16;100.00;101258.25;20970988;28;20048;-62
2022/10/05 05:37:24;;;;;;;12.13;8.18;;;;;;;14.14;100.00;101235.69;20963301;28;20584;-62
2022/10/05 05:47:52;;;;;;;14.65;8.13;;;;;;;14.04;100.00;101238.16;20957846;28;20060;-62
2022/10/05 05:58:24;;;;;;;16.77;8.73;;;;;;;14.23;100.00;101232.41;20975309;28;20094;-62
2022/10/05 06:08:49;;;;;;;16.42;9.25;;;;;;;14.26;100.00;101237.44;20984282;28;20041;-62
2022/10/05 06:19:15;;;;;;;14.20;8.88;;;;;;;14.40;100.00;101232.03;20963761;28;20113;-62
2022/10/05 06:30:15;;;;;;;16.55;8.88;;;;;;;14.45;100.00;101234.19;20960027;28;20493;-63
2022/10/05 06:41:01;;;;;;;12.90;8.87;;;;;;;14.46;100.00;101259.47;20962347;28;20489;-62
2022/10/05 06:51:49;;;;;;;16.02;9.48;;;;;;;14.58;100.00;101257.72;20963813;28;20045;-62
2022/10/05 07:02:22;;;;;;;15.18;8.88;;;;;;;14.60;100.00;101248.78;20989230;28;20048;-62
2022/10/05 07:12:53;;;;;;;14.82;9.65;;;;;;;14.60;100.00;101247.97;20946347;28;20078;-63
2022/10/05 07:23:51;;;;;;;13.65;9.05;;;;;;;14.83;99.53;101254.94;20956553;28;20053;-62
2022/10/05 07:34:40;;;;;;;16.38;9.68;;;;;;;14.96;99.12;101261.78;20961696;28;20612;-63
2022/10/05 07:45:24;;;;;;;20.60;9.18;;;;;;;15.15;98.40;101262.03;20951735;28;20094;-63
2022/10/05 07:55:51;;;;;;;12.15;8.35;;;;;;;15.34;96.58;101264.97;20951058;28;20054;-62
2022/10/05 08:06:29;;;;;;;13.38;8.57;;;;;;;15.34;95.75;101261.53;20959430;28;20527;-63
2022/10/05 08:16:56;;;;;;;9.93;7.75;;;;;;;15.47;94.03;101257.81;20956299;28;20044;-63
2022/10/05 08:27:26;;;;;;;9.38;6.63;;;;;;;15.49;94.69;101262.03;20956012;28;20444;-63
2022/10/05 08:37:49;;;;;;;8.38;5.97;;;;;;;15.54;94.30;101253.78;20956904;28;20040;-63
2022/10/05 08:48:41;;;;;;;8.50;6.10;;;;;;;15.66;94.14;101253.63;20971642;28;20102;-63
2022/10/05 08:59:20;;;;;;;8.65;5.90;;;;;;;15.59;94.35;101246.34;20972330;28;20040;-63
2022/10/05 09:10:20;;;;;;;8.68;6.30;;;;;;;15.60;94.06;101234.88;20970794;28;20040;-63
2022/10/05 09:20:52;;;;;;;11.57;6.40;;;;;;;15.79;93.09;101232.47;20981949;28;20443;-63
2022/10/05 09:31:43;;;;;;;10.75;6.32;;;;;;;16.03;92.51;101223.47;20982756;28;20603;-62
2022/10/05 09:42:16;;;;;;;9.60;5.63;;;;;;;16.19;90.36;101205.47;20966268;28;20041;-63
2022/10/05 09:52:38;;;;;;;6.78;4.85;;;;;;;16.39;89.53;101199.44;20966657;28;20087;-63
2022/10/05 10:03:14;;;;;;;;;;;;;;;16.47;88.17;101187.31;20964493;28;20040;-63
2022/10/05 10:14:17;;;;;;;4.78;3.60;;;;;;;16.51;86.61;101180.84;20965725;28;19975;-63
2022/10/05 10:25:03;;;;;;;3.88;3.00;;;;;;;16.72;86.49;101171.16;20956781;28;20048;-63
2022/10/05 10:35:36;;;;;;;5.13;3.05;;;;;;;16.78;86.88;101175.88;20965018;28;20043;-64
2022/10/05 10:45:58;;;;;;;3.38;3.05;;;;;;;16.84;84.19;101162.22;20963435;28;20044;-62
2022/10/05 10:56:25;;;;;;;8.50;2.97;;;;;;;16.88;84.15;101155.69;20963552;28;20098;-62
2022/10/05 11:07:08;;;;;;;4.25;3.05;;;;;;;17.07;83.98;101152.34;20949532;28;20053;-62
2022/10/05 11:17:39;;;;;;;6.38;2.78;;;;;;;17.07;84.50;101133.91;20959824;28;20643;-63
2022/10/05 11:28:34;;;;;;;4.20;2.73;;;;;;;17.06;82.63;101140.94;20974340;28;20056;-62
2022/10/05 11:39:17;;;;;;;2.97;2.50;;;;;;;17.19;82.45;101131.00;20947573;28;20052;-63
2022/10/05 11:49:46;;;;;;;3.22;2.50;;;;;;;17.47;80.49;101119.75;20958049;28;20049;-64
2022/10/05 12:00:22;;;;;;;5.10;2.40;;;;;;;17.56;80.37;101103.13;20959374;28;20463;-63
2022/10/05 12:11:24;;;;;;;3.05;2.20;;;;;;;17.69;80.82;101088.69;20971320;28;20044;-63
2022/10/05 12:21:52;;;;;;;4.25;2.20;;;;;;;18.16;80.92;101065.94;20957699;28;20094;-63
2022/10/05 12:32:32;;;;;;;6.22;2.53;;;;;;;18.09;80.36;101059.53;20959309;28;20044;-63
2022/10/05 12:43:14;;;;;;;3.45;2.55;;;;;;;18.24;80.57;101051.09;20946786;28;20048;-63
2022/10/05 12:53:39;;;;;;;8.68;2.85;;;;;;;18.42;80.65;101042.28;20977535;28;20052;-63
2022/10/05 13:04:09;;;;;;;5.03;2.47;;;;;;;18.45;80.69;101052.56;20949738;28;20067;-63
2022/10/05 13:14:39;;;;;;;4.20;2.20;;;;;;;18.54;80.22;101070.19;20960900;28;20114;-63
2022/10/05 13:25:28;;;;;;;4.40;2.10;;;;;;;18.62;80.07;101048.34;20947771;28;20044;-62
2022/10/05 13:36:17;;;;;;;3.92;2.30;;;;;;;18.66;80.26;101045.25;21012898;28;20293;-60
2022/10/05 13:47:02;;;;;;;3.72;2.20;;;;;;;18.69;79.45;101044.16;20995045;28;20397;-63
2022/10/05 13:57:45;;;;;;;4.07;2.47;;;;;;;18.57;79.96;101027.66;20970616;28;20087;-62
2022/10/05 14:08:07;;;;;;;3.38;2.20;;;;;;;18.65;80.71;101035.66;20969693;28;20060;-62
2022/10/05 14:18:31;;;;;;;4.82;2.08;;;;;;;18.64;79.17;101036.66;20965539;28;20536;-62
2022/10/05 14:29:15;;;;;;;4.03;1.98;;;;;;;18.67;78.86;101015.22;20973661;28;20104;-63
2022/10/05 14:39:41;;;;;;;3.78;1.90;;;;;;;18.81;77.75;101019.22;20982384;28;20456;-62
2022/10/05 14:50:16;;;;;;;3.28;1.80;;;;;;;18.82;78.58;101005.84;20967327;28;20048;-63
2022/10/05 15:01:16;;;;;;;4.10;2.13;;;;;;;18.80;78.79;100989.31;20974441;28;20052;-62
2022/10/05 15:11:48;;;;;;;3.27;1.60;;;;;;;18.79;79.82;100992.91;20957565;28;20044;-63
2022/10/05 15:22:12;;;;;;;4.65;2.00;;;;;;;18.85;80.11;100973.00;20965987;28;20481;-63
2022/10/05 15:33:03;;;;;;;2.40;2.10;;;;;;;18.81;79.70;100967.19;20949649;28;20508;-62
2022/10/05 15:43:33;;;;;;;2.97;1.43;;;;;;;18.83;79.83;100967.88;20939113;28;20040;-63
2022/10/05 16:05:18;;;;;;;5.72;1.77;;;;;;;18.76;80.57;100977.38;20936733;28;19925;-62
2022/10/05 16:15:49;;;;;;;3.08;1.63;;;;;;;18.67;81.59;100983.53;20943133;28;20801;-63
2022/10/05 16:26:17;;;;;;;3.87;1.87;;;;;;;18.66;81.33;100989.78;20953685;28;20098;-62
2022/10/05 16:36:52;;;;;;;2.50;1.90;;;;;;;18.57;83.19;100998.59;20940729;28;20091;-62
2022/10/05 16:47:38;;;;;;;4.93;1.90;;;;;;;18.39;84.96;101010.88;20943378;28;20114;-62
2022/10/05 16:58:10;;;;;;;2.65;1.73;;;;;;;18.41;84.46;101014.22;20938696;28;20052;-62
2022/10/05 17:09:09;;;;;;;3.88;1.55;;;;;;;18.55;83.77;101008.47;20948602;28;20447;-63
2022/10/05 17:19:46;;;;;;;4.97;1.50;;;;;;;18.64;82.86;101017.34;20955126;28;20134;-61
2022/10/05 17:30:27;;;;;;;3.03;1.60;;;;;;;18.52;83.81;101021.16;20970403;28;20048;-60
2022/10/05 17:41:07;;;;;;;;;;;;;;;18.42;84.51;101042.28;20955214;28;20102;-60
2022/10/05 18:02:18;;;;;;;3.17;1.47;;;;;;;18.49;85.21;101051.28;20955006;28;20183;-60
2022/10/05 18:12:58;;;;;;;2.28;1.70;;;;;;;18.49;84.93;101064.50;20948239;28;20579;-61
2022/10/05 18:23:22;;;;;;;2.20;1.57;;;;;;;18.53;85.30;101060.59;20950756;28;20048;-60
2022/10/05 18:33:52;;;;;;;2.35;1.73;;;;;;;18.63;84.06;101053.47;20960876;28;20485;-61
2022/10/05 18:44:25;;;;;;;3.33;1.38;;;;;;;18.68;83.63;101063.63;20961685;28;20056;-61
2022/10/05 18:55:12;;;;;;;3.55;1.40;;;;;;;18.84;80.97;101066.47;20953556;28;20049;-61
2022/10/05 19:05:48;;;;;;;2.80;1.30;;;;;;;18.96;78.81;101073.25;20951629;28;20049;-60
2022/10/05 19:16:19;;;;;;;8.00;1.50;;;;;;;18.88;78.24;101095.09;20965255;28;20048;-60
2022/10/05 19:27:05;;;;;;;3.93;1.13;;;;;;;18.72;77.68;101102.81;20956314;28;20500;-61
2022/10/05 19:37:45;;;;;;;3.83;1.20;;;;;;;18.66;77.80;101103.38;20961151;28;20037;-61
2022/10/05 19:48:27;;;;;;;5.10;1.08;;;;;;;18.53;78.42;101123.16;20969920;28;20036;-61
2022/10/05 19:58:54;;;;;;;4.20;1.25;;;;;;;18.42;78.81;101126.78;20968275;28;20060;-61
2022/10/05 20:09:20;;;;;;;4.20;1.48;;;;;;;18.21;78.97;101138.44;20946756;28;20106;-61
2022/10/05 20:30:26;;;;;;;4.13;1.30;;;;;;;18.03;79.29;101152.47;20954325;28;20041;-61
2022/10/05 20:40:47;;;;;;;2.95;1.23;;;;;;;18.02;79.53;101138.44;20955602;28;20105;-61
2022/10/05 20:51:09;;;;;;;3.63;1.27;;;;;;;18.04;80.58;101140.94;20955674;28;20100;-61
2022/10/05 21:01:30;;;;;;;4.95;1.33;;;;;;;18.03;80.99;101163.03;20947135;28;20044;-61
2022/10/05 21:11:53;;;;;;;2.40;1.10;;;;;;;18.07;81.20;101177.59;20952601;28;20036;-62
2022/10/05 21:22:14;;;;;;;5.32;1.60;;;;;;;18.16;81.17;101190.78;20955636;28;20036;-61
2022/10/05 21:32:36;;;;;;;3.30;1.00;;;;;;;17.46;87.87;101282.38;20953352;28;20048;-61
2022/10/05 21:43:04;;;;;;;3.40;0.30;;;;;;;15.81;100.00;101301.53;20953237;28;20094;-61
2022/10/05 21:53:29;;;;;;;0.80;0.60;;;;;;;15.44;100.00;101300.94;20962397;28;20097;-61
2022/10/05 22:03:51;;;;;;;1.60;0.50;;;;;;;15.32;100.00;101305.47;20965737;28;20056;-60
2022/10/05 22:14:15;;;;;;;;;;;;;;;15.44;100.00;101331.63;20966145;28;20079;-61
2022/10/05 22:24:37;;;;;;;1.45;0.50;;;;;;;15.40;100.00;101367.00;20965492;28;20434;-61
2022/10/05 22:34:58;;;;;;;;;;;;;;;15.42;100.00;101386.09;20963618;28;20040;-60
2022/10/05 22:45:20;;;;;;;1.00;0.40;;;;;;;15.46;100.00;101377.88;20959003;28;19928;-61
2022/10/05 22:55:41;;;;;;;;;;;;;;;15.50;99.32;101402.13;20966225;28;20036;-60
2022/10/05 23:06:08;;;;;;;0.23;0.20;;;;;;;15.44;89.07;101444.59;20954631;28;19920;-61
2022/10/05 23:16:30;;;;;;;0.13;0.10;;;;;;;14.84;88.07;101456.13;20962291;28;20052;-61
2022/10/05 23:26:52;;;;;;;0.82;0.20;;;;;;;14.47;96.98;101496.44;20955913;28;20110;-60
2022/10/05 23:37:13;;;;;;;2.22;0.30;;;;;;;14.48;100.00;101506.81;20960118;28;20358;-61
2022/10/05 23:47:35;;;;;;;;;;;;;;;14.82;100.00;101526.28;20957449;28;20045;-61
2022/10/05 23:57:56;;;;;;;2.93;0.50;;;;;;;14.82;100.00;101532.38;20954928;28;19967;-61
